Time;durP1;ratioP1;P1;durP2;ratioP2;P2;SDS_P1;SDS_P2;PMS_P1;PMS_P2;Temp;Humidity;BMP_temperature;BMP_pressure;BME280_temperature;BME280_humidity;BME280_pressure;Samples;Min_cycle;Max_cycle;Signal;HPM_P1;HPM_P2
2023/08/10 00:00:25;;;;;;;3.40;2.30;;;;;;;;;;5025755;28;20186;-51
2023/08/10 00:02:51;;;;;;;3.80;2.40;;;;;;;;;;5026265;28;20196;-52
2023/08/10 00:05:17;;;;;;;2.67;2.40;;;;;;;;;;5026258;28;20256;-51
2023/08/10 00:07:43;;;;;;;4.50;2.70;;;;;;;;;;5026360;28;21000;-48
2023/08/10 00:10:09;;;;;;;2.63;2.33;;;;;;;;;;5026593;28;20297;-48
2023/08/10 00:12:36;;;;;;;2.83;2.50;;;;;;;;;;5025369;28;20194;-48
2023/08/10 00:15:03;;;;;;;2.97;2.57;;;;;;;;;;5027568;28;21183;-48
2023/08/10 00:17:29;;;;;;;2.80;2.60;;;;;;;;;;5028112;28;20194;-48
2023/08/10 00:19:55;;;;;;;3.77;2.60;;;;;;;;;;5027463;28;20190;-50
2023/08/10 00:22:21;;;;;;;2.80;2.50;;;;;;;;;;5028019;28;20644;-50
2023/08/10 00:24:47;;;;;;;7.77;2.40;;;;;;;;;;5028729;28;20190;-50
2023/08/10 00:27:14;;;;;;;3.33;2.40;;;;;;;;;;5026011;28;20236;-50
2023/08/10 00:29:40;;;;;;;2.93;2.73;;;;;;;;;;5028187;28;20198;-50
2023/08/10 00:32:06;;;;;;;3.97;2.40;;;;;;;;;;5026387;28;20221;-50
2023/08/10 00:34:32;;;;;;;2.73;2.33;;;;;;;;;;5027835;28;21203;-50
2023/08/10 00:36:58;;;;;;;2.60;2.40;;;;;;;;;;5025314;28;20283;-50
2023/08/10 00:39:24;;;;;;;2.57;2.37;;;;;;;;;;5009690;28;20615;-50
2023/08/10 00:41:50;;;;;;;3.63;2.70;;;;;;;;;;5023066;28;20223;-50
2023/08/10 00:44:16;;;;;;;3.10;2.30;;;;;;;;;;5027420;28;20200;-50
2023/08/10 00:46:42;;;;;;;2.50;2.30;;;;;;;;;;5027672;28;20292;-50
2023/08/10 00:49:09;;;;;;;5.33;2.47;;;;;;;;;;5025398;28;20182;-51
2023/08/10 00:51:35;;;;;;;3.10;2.33;;;;;;;;;;5025364;28;20190;-51
2023/08/10 00:54:01;;;;;;;2.40;2.20;;;;;;;;;;5027682;28;20264;-51
2023/08/10 00:56:27;;;;;;;2.77;2.57;;;;;;;;;;5026554;28;20188;-51
2023/08/10 00:58:53;;;;;;;3.07;2.10;;;;;;;;;;5026940;28;20217;-51
2023/08/10 01:01:19;;;;;;;2.63;2.40;;;;;;;;;;5026485;28;20541;-51
2023/08/10 01:03:45;;;;;;;3.00;2.57;;;;;;;;;;5027633;28;20198;-51
2023/08/10 01:06:26;;;;;;;2.30;2.10;;;;;;;;;;5026374;28;20183;-51
2023/08/10 01:09:11;;;;;;;4.17;2.43;;;;;;;;;;5024250;28;20281;-50
2023/08/10 01:11:41;;;;;;;2.50;2.20;;;;;;;;;;5026364;28;20185;-51
2023/08/10 01:14:17;;;;;;;3.10;2.10;;;;;;;;;;5026534;28;20186;-51
2023/08/10 01:16:44;;;;;;;2.60;2.07;;;;;;;;;;5026470;28;20197;-51
2023/08/10 01:19:21;;;;;;;3.73;2.67;;;;;;;;;;5024238;28;20689;-51
2023/08/10 01:21:54;;;;;;;2.93;2.47;;;;;;;;;;5025447;28;20224;-51
2023/08/10 01:24:27;;;;;;;2.57;2.23;;;;;;;;;;5022829;28;20653;-51
2023/08/10 01:26:55;;;;;;;2.23;2.03;;;;;;;;;;5024594;28;20324;-50
2023/08/10 01:29:22;;;;;;;2.87;2.50;;;;;;;;;;5024422;28;20589;-48
2023/08/10 01:31:48;;;;;;;2.63;2.30;;;;;;;;;;5025314;28;20548;-48
2023/08/10 01:34:14;;;;;;;2.90;2.60;;;;;;;;;;5025814;28;20235;-48
2023/08/10 01:36:41;;;;;;;2.63;2.37;;;;;;;;;;5023278;28;20264;-48
2023/08/10 01:39:07;;;;;;;2.73;2.23;;;;;;;;;;5024833;28;20206;-49
2023/08/10 01:41:33;;;;;;;3.30;2.40;;;;;;;;;;5025086;28;20309;-51
2023/08/10 01:43:59;;;;;;;2.53;2.30;;;;;;;;;;5023658;28;20190;-50
2023/08/10 01:46:27;;;;;;;3.07;2.50;;;;;;;;;;5026161;28;20239;-50
2023/08/10 01:48:54;;;;;;;3.30;2.67;;;;;;;;;;5023239;28;20198;-50
2023/08/10 01:51:23;;;;;;;3.57;2.53;;;;;;;;;;5021808;28;20235;-50
2023/08/10 01:53:49;;;;;;;2.60;2.40;;;;;;;;;;5023770;28;20217;-50
2023/08/10 01:56:15;;;;;;;2.33;2.13;;;;;;;;;;5025940;28;20192;-50
2023/08/10 01:58:41;;;;;;;3.07;2.30;;;;;;;;;;5023664;28;20308;-50
2023/08/10 02:01:07;;;;;;;2.60;2.40;;;;;;;;;;5018933;28;20202;-50
2023/08/10 02:03:33;;;;;;;2.53;2.33;;;;;;;;;;5025634;28;20182;-50
2023/08/10 02:06:00;;;;;;;2.23;1.80;;;;;;;;;;5025429;28;20190;-50
2023/08/10 02:08:26;;;;;;;3.93;2.40;;;;;;;;;;5023108;28;20641;-50
2023/08/10 02:10:52;;;;;;;1.90;1.70;;;;;;;;;;5023272;28;20240;-50
2023/08/10 02:13:18;;;;;;;2.93;2.43;;;;;;;;;;5025885;28;20218;-50
2023/08/10 02:15:44;;;;;;;3.03;2.53;;;;;;;;;;5025212;28;20660;-50
2023/08/10 02:18:12;;;;;;;2.37;2.17;;;;;;;;;;5024875;28;20563;-50
2023/08/10 02:20:39;;;;;;;2.27;2.13;;;;;;;;;;5024879;28;20673;-50
2023/08/10 02:23:05;;;;;;;2.73;2.37;;;;;;;;;;5022866;28;20519;-50
2023/08/10 02:25:31;;;;;;;4.00;2.20;;;;;;;;;;5023301;28;20186;-50
2023/08/10 02:27:57;;;;;;;2.67;2.37;;;;;;;;;;5025055;28;20198;-50
2023/08/10 02:30:23;;;;;;;2.50;2.20;;;;;;;;;;5027095;28;21163;-50
2023/08/10 02:32:49;;;;;;;3.33;2.70;;;;;;;;;;5029824;28;20201;-50
2023/08/10 02:35:15;;;;;;;2.67;2.47;;;;;;;;;;5026871;28;20198;-50
2023/08/10 02:37:42;;;;;;;2.40;2.20;;;;;;;;;;5027863;28;20793;-50
2023/08/10 02:40:11;;;;;;;2.57;2.37;;;;;;;;;;5010605;28;20198;-49
2023/08/10 02:42:37;;;;;;;2.20;2.00;;;;;;;;;;5029890;28;20194;-49
2023/08/10 02:45:03;;;;;;;2.77;2.57;;;;;;;;;;5029538;28;20181;-49
2023/08/10 02:47:29;;;;;;;2.93;2.23;;;;;;;;;;5028927;28;20568;-48
2023/08/10 02:49:55;;;;;;;3.40;2.70;;;;;;;;;;5011352;28;20182;-50
2023/08/10 02:52:21;;;;;;;6.00;2.50;;;;;;;;;;5027114;28;20189;-50
2023/08/10 02:54:47;;;;;;;2.50;2.30;;;;;;;;;;5030613;28;20182;-50
2023/08/10 02:57:14;;;;;;;2.13;2.03;;;;;;;;;;5027759;28;20673;-50
2023/08/10 02:59:40;;;;;;;3.40;2.50;;;;;;;;;;5025617;28;20724;-50
2023/08/10 03:02:06;;;;;;;2.30;2.10;;;;;;;;;;5027596;28;20666;-50
2023/08/10 03:04:32;;;;;;;2.70;2.50;;;;;;;;;;5028783;28;20194;-51
2023/08/10 03:06:58;;;;;;;3.43;2.63;;;;;;;;;;5029664;28;20221;-50
2023/08/10 03:09:24;;;;;;;2.23;2.00;;;;;;;;;;5023978;28;20187;-50
2023/08/10 03:11:51;;;;;;;2.73;2.50;;;;;;;;;;5029745;28;20650;-51
2023/08/10 03:14:18;;;;;;;2.30;2.10;;;;;;;;;;5029017;28;20193;-51
2023/08/10 03:16:44;;;;;;;3.60;3.30;;;;;;;;;;5030202;28;20237;-51
2023/08/10 03:19:10;;;;;;;2.40;2.20;;;;;;;;;;5026144;28;20279;-51
2023/08/10 03:21:36;;;;;;;2.03;1.93;;;;;;;;;;5029314;28;20190;-51
2023/08/10 03:24:02;;;;;;;2.20;2.00;;;;;;;;;;5029047;28;20178;-51
2023/08/10 03:26:29;;;;;;;2.50;2.20;;;;;;;;;;5028743;28;20681;-51
2023/08/10 03:28:55;;;;;;;4.73;2.70;;;;;;;;;;5027625;28;20225;-51
2023/08/10 03:31:23;;;;;;;2.20;2.00;;;;;;;;;;5028518;28;20209;-50
2023/08/10 03:33:49;;;;;;;2.30;2.10;;;;;;;;;;5028707;28;20198;-50
2023/08/10 03:36:16;;;;;;;1.90;1.80;;;;;;;;;;5026110;28;20237;-50
2023/08/10 03:38:42;;;;;;;2.27;2.00;;;;;;;;;;5027523;28;20573;-51
2023/08/10 03:41:08;;;;;;;2.77;2.17;;;;;;;;;;5025923;28;20190;-51
2023/08/10 03:43:34;;;;;;;4.83;2.03;;;;;;;;;;5029034;28;20194;-50
2023/08/10 03:46:02;;;;;;;2.20;1.97;;;;;;;;;;5027968;28;20187;-50
2023/08/10 03:48:28;;;;;;;2.33;2.13;;;;;;;;;;5027657;28;20202;-49
2023/08/10 03:50:54;;;;;;;2.30;2.10;;;;;;;;;;5026903;28;20197;-51
2023/08/10 03:53:21;;;;;;;2.20;2.10;;;;;;;;;;5009843;28;20192;-50
2023/08/10 03:55:47;;;;;;;2.30;2.10;;;;;;;;;;5029130;28;20622;-51
2023/08/10 03:58:14;;;;;;;2.63;2.20;;;;;;;;;;5031440;28;20740;-51
2023/08/10 04:00:44;;;;;;;3.53;2.30;;;;;;;;;;5023531;28;20209;-50
2023/08/10 04:03:11;;;;;;;2.77;2.57;;;;;;;;;;5029069;28;20186;-50
2023/08/10 04:05:37;;;;;;;2.77;2.07;;;;;;;;;;5026743;28;20515;-50
2023/08/10 04:08:03;;;;;;;4.50;2.63;;;;;;;;;;5025288;28;20190;-50
2023/08/10 04:10:29;;;;;;;3.93;2.33;;;;;;;;;;5026732;28;22189;-50
2023/08/10 04:12:56;;;;;;;2.67;2.30;;;;;;;;;;5027482;28;20208;-50
2023/08/10 04:15:22;;;;;;;3.17;1.90;;;;;;;;;;5028380;28;20213;-50
2023/08/10 04:17:48;;;;;;;4.40;2.03;;;;;;;;;;5028091;28;20964;-50
2023/08/10 04:20:14;;;;;;;2.30;2.10;;;;;;;;;;5023860;28;20189;-50
2023/08/10 04:22:40;;;;;;;2.40;2.20;;;;;;;;;;5027830;28;20309;-50
2023/08/10 04:25:07;;;;;;;3.00;2.43;;;;;;;;;;5026573;28;20248;-50
2023/08/10 04:27:36;;;;;;;3.97;2.40;;;;;;;;;;5028811;28;20711;-50
2023/08/10 04:30:04;;;;;;;2.53;2.33;;;;;;;;;;5027622;28;20186;-50
2023/08/10 04:32:30;;;;;;;2.40;2.20;;;;;;;;;;5026441;28;20192;-50
2023/08/10 04:34:56;;;;;;;2.63;2.17;;;;;;;;;;5021753;28;20558;-51
2023/08/10 04:37:22;;;;;;;2.00;1.80;;;;;;;;;;5024007;28;20237;-50
2023/08/10 04:39:48;;;;;;;2.20;2.00;;;;;;;;;;5028850;28;20280;-50
2023/08/10 04:42:14;;;;;;;4.13;1.87;;;;;;;;;;5028114;28;20197;-51
2023/08/10 04:44:40;;;;;;;2.33;2.07;;;;;;;;;;5028029;28;20747;-50
2023/08/10 04:47:06;;;;;;;2.33;2.13;;;;;;;;;;5027971;28;20189;-50
2023/08/10 04:49:33;;;;;;;2.10;2.00;;;;;;;;;;5025400;28;20673;-50
2023/08/10 04:51:59;;;;;;;2.50;2.30;;;;;;;;;;5026030;28;20202;-50
2023/08/10 04:54:25;;;;;;;2.60;2.37;;;;;;;;;;5027013;28;20185;-49
2023/08/10 04:56:51;;;;;;;3.77;2.27;;;;;;;;;;5018902;28;20546;-51
2023/08/10 04:59:19;;;;;;;2.17;2.03;;;;;;;;;;5025360;28;20340;-49
2023/08/10 05:01:46;;;;;;;2.57;2.37;;;;;;;;;;5010544;28;20186;-49
2023/08/10 05:04:14;;;;;;;3.80;2.60;;;;;;;;;;5024880;28;20648;-49
2023/08/10 05:06:41;;;;;;;2.70;2.50;;;;;;;;;;5026284;28;20196;-48
2023/08/10 05:09:07;;;;;;;4.33;2.70;;;;;;;;;;5028269;28;20281;-52
2023/08/10 05:11:33;;;;;;;4.73;2.27;;;;;;;;;;5025091;28;20235;-52
2023/08/10 05:13:59;;;;;;;2.97;2.20;;;;;;;;;;5027456;28;20751;-52
2023/08/10 05:16:25;;;;;;;2.50;2.30;;;;;;;;;;5025463;28;20190;-51
2023/08/10 05:18:51;;;;;;;3.30;2.40;;;;;;;;;;5024251;28;20218;-52
2023/08/10 05:21:18;;;;;;;2.90;2.70;;;;;;;;;;5024570;28;20695;-51
2023/08/10 05:23:44;;;;;;;3.37;2.07;;;;;;;;;;5030727;28;20581;-51
2023/08/10 05:26:10;;;;;;;3.63;2.67;;;;;;;;;;5022784;28;20638;-52
2023/08/10 05:28:36;;;;;;;3.73;3.07;;;;;;;;;;5022873;28;20209;-52
2023/08/10 05:31:02;;;;;;;3.17;2.30;;;;;;;;;;5019824;28;20252;-52
2023/08/10 05:33:29;;;;;;;4.17;2.60;;;;;;;;;;5024331;28;20207;-52
2023/08/10 05:35:56;;;;;;;5.50;3.07;;;;;;;;;;5019428;28;20190;-53
2023/08/10 05:38:22;;;;;;;3.80;3.13;;;;;;;;;;5025394;28;20210;-52
2023/08/10 05:40:48;;;;;;;3.57;2.77;;;;;;;;;;5009283;28;20597;-51
2023/08/10 05:43:14;;;;;;;4.17;2.47;;;;;;;;;;5021466;28;20196;-52
2023/08/10 05:45:40;;;;;;;3.20;2.53;;;;;;;;;;5022606;28;20197;-51
2023/08/10 05:48:10;;;;;;;2.90;2.70;;;;;;;;;;5024628;28;20201;-52
2023/08/10 05:50:36;;;;;;;3.80;2.63;;;;;;;;;;5025286;28;20263;-51
2023/08/10 05:53:03;;;;;;;2.50;2.27;;;;;;;;;;5026372;28;20799;-50
2023/08/10 05:55:29;;;;;;;3.97;2.37;;;;;;;;;;5027751;28;20189;-51
2023/08/10 05:57:56;;;;;;;3.20;2.90;;;;;;;;;;5024307;28;20232;-50
2023/08/10 06:00:22;;;;;;;4.30;2.87;;;;;;;;;;5016118;28;20665;-53
2023/08/10 06:02:49;;;;;;;4.53;3.07;;;;;;;;;;5022406;28;20197;-53
2023/08/10 06:05:15;;;;;;;3.77;2.83;;;;;;;;;;5019331;28;20340;-53
2023/08/10 06:07:41;;;;;;;3.73;2.30;;;;;;;;;;5029238;28;20197;-53
2023/08/10 06:10:07;;;;;;;2.73;2.53;;;;;;;;;;5030126;28;20185;-52
2023/08/10 06:12:34;;;;;;;4.60;3.30;;;;;;;;;;5025943;28;20190;-52
2023/08/10 06:15:00;;;;;;;5.97;3.20;;;;;;;;;;5029984;28;20190;-52
2023/08/10 06:17:26;;;;;;;3.97;2.93;;;;;;;;;;5029896;28;20561;-53
2023/08/10 06:19:53;;;;;;;4.23;3.40;;;;;;;;;;5031240;28;20213;-49
2023/08/10 06:22:21;;;;;;;3.80;2.90;;;;;;;;;;5029202;28;20186;-50
2023/08/10 06:24:47;;;;;;;3.33;3.00;;;;;;;;;;5028252;28;20248;-48
2023/08/10 06:27:14;;;;;;;4.33;3.43;;;;;;;;;;5011885;28;20190;-48
2023/08/10 06:29:40;;;;;;;4.23;3.40;;;;;;;;;;5030457;28;20193;-49
2023/08/10 06:32:07;;;;;;;3.77;3.47;;;;;;;;;;5024738;28;20213;-49
2023/08/10 06:34:33;;;;;;;3.50;3.20;;;;;;;;;;5029489;28;20190;-49
2023/08/10 06:36:59;;;;;;;4.40;3.30;;;;;;;;;;5027547;28;20241;-49
2023/08/10 06:39:27;;;;;;;3.73;2.90;;;;;;;;;;5028659;28;20696;-49
2023/08/10 06:41:53;;;;;;;4.90;4.30;;;;;;;;;;5024079;28;20697;-49
2023/08/10 06:44:20;;;;;;;3.10;2.87;;;;;;;;;;5022033;28;20201;-49
2023/08/10 06:46:46;;;;;;;6.30;3.30;;;;;;;;;;5025968;28;20684;-49
2023/08/10 06:49:12;;;;;;;5.87;3.37;;;;;;;;;;5028405;28;20210;-49
2023/08/10 06:51:38;;;;;;;5.07;3.20;;;;;;;;;;5027504;28;20693;-49
2023/08/10 06:54:05;;;;;;;4.30;3.90;;;;;;;;;;5026851;28;20181;-49
2023/08/10 06:56:31;;;;;;;5.60;3.60;;;;;;;;;;5028739;28;20658;-49
2023/08/10 06:58:57;;;;;;;3.40;2.90;;;;;;;;;;5031221;28;20701;-48
2023/08/10 07:01:23;;;;;;;4.03;2.77;;;;;;;;;;5027989;28;20201;-49
2023/08/10 07:03:49;;;;;;;6.00;3.10;;;;;;;;;;5030725;28;20259;-50
2023/08/10 07:06:16;;;;;;;3.37;2.93;;;;;;;;;;5027257;28;20190;-50
2023/08/10 07:08:42;;;;;;;3.83;3.10;;;;;;;;;;5026569;28;20244;-50
2023/08/10 07:11:08;;;;;;;4.00;2.80;;;;;;;;;;5029135;28;20193;-49
2023/08/10 07:13:34;;;;;;;3.07;2.77;;;;;;;;;;5030855;28;20542;-50
2023/08/10 07:16:00;;;;;;;3.00;2.80;;;;;;;;;;5031133;28;20196;-50
2023/08/10 07:18:27;;;;;;;6.27;3.27;;;;;;;;;;5031244;28;20212;-50
2023/08/10 07:20:55;;;;;;;3.80;3.03;;;;;;;;;;5029458;28;20656;-49
2023/08/10 07:23:21;;;;;;;4.27;2.87;;;;;;;;;;5026148;28;20596;-50
2023/08/10 07:25:47;;;;;;;5.67;2.83;;;;;;;;;;5024033;28;20197;-50
2023/08/10 07:28:14;;;;;;;5.57;3.10;;;;;;;;;;5027035;28;20201;-50
2023/08/10 07:30:40;;;;;;;5.03;2.90;;;;;;;;;;5029008;28;20316;-53
2023/08/10 07:33:06;;;;;;;3.93;2.93;;;;;;;;;;5027853;28;20399;-53
2023/08/10 07:35:32;;;;;;;5.23;3.17;;;;;;;;;;5024322;28;20306;-52
2023/08/10 07:37:58;;;;;;;6.23;3.67;;;;;;;;;;5027703;28;20233;-52
2023/08/10 07:40:25;;;;;;;5.93;3.40;;;;;;;;;;5006890;28;20188;-51
2023/08/10 07:42:51;;;;;;;4.40;3.40;;;;;;;;;;5025937;28;20744;-51
2023/08/10 07:45:17;;;;;;;3.97;3.17;;;;;;;;;;5025271;28;20189;-52
2023/08/10 07:47:43;;;;;;;5.30;2.80;;;;;;;;;;5028480;28;20204;-52
2023/08/10 07:50:10;;;;;;;5.93;3.07;;;;;;;;;;5024862;28;20658;-53
2023/08/10 07:52:37;;;;;;;4.13;3.40;;;;;;;;;;5008979;28;20201;-52
2023/08/10 07:55:03;;;;;;;5.90;3.53;;;;;;;;;;5028507;28;20506;-52
2023/08/10 07:57:30;;;;;;;4.60;2.87;;;;;;;;;;5025977;28;20272;-52
2023/08/10 08:00:00;;;;;;;6.67;3.47;;;;;;;;;;5025199;28;20212;-53
2023/08/10 08:02:28;;;;;;;5.63;2.90;;;;;;;;;;5021611;28;20182;-52
2023/08/10 08:04:54;;;;;;;4.23;3.00;;;;;;;;;;5024904;28;20181;-52
2023/08/10 08:07:20;;;;;;;4.07;3.33;;;;;;;;;;5025513;28;20195;-52
2023/08/10 08:09:47;;;;;;;4.40;3.23;;;;;;;;;;5029155;28;20194;-53
2023/08/10 08:12:13;;;;;;;6.20;3.40;;;;;;;;;;5027055;28;20581;-53
2023/08/10 08:14:39;;;;;;;3.70;2.73;;;;;;;;;;5027104;28;20751;-53
2023/08/10 08:17:05;;;;;;;5.70;3.50;;;;;;;;;;5026415;28;20214;-52
2023/08/10 08:19:33;;;;;;;3.80;2.80;;;;;;;;;;5027280;28;20570;-53
2023/08/10 08:21:59;;;;;;;3.77;3.07;;;;;;;;;;5025683;28;20182;-53
2023/08/10 08:24:28;;;;;;;3.47;2.77;;;;;;;;;;5019393;28;20193;-53
2023/08/10 08:26:56;;;;;;;5.80;2.97;;;;;;;;;;5028084;28;20713;-53
2023/08/10 08:29:23;;;;;;;3.93;2.90;;;;;;;;;;5025484;28;20201;-53
2023/08/10 08:31:49;;;;;;;3.70;3.07;;;;;;;;;;5027356;28;20209;-53
2023/08/10 08:34:15;;;;;;;4.93;2.60;;;;;;;;;;5009388;28;20555;-53
2023/08/10 08:36:41;;;;;;;4.47;2.67;;;;;;;;;;5026638;28;20232;-51
2023/08/10 08:39:08;;;;;;;6.13;3.47;;;;;;;;;;5027702;28;20662;-52
2023/08/10 08:41:36;;;;;;;8.07;4.00;;;;;;;;;;5028963;28;20189;-49
2023/08/10 08:44:03;;;;;;;6.57;3.30;;;;;;;;;;5027650;28;20182;-49
2023/08/10 08:46:31;;;;;;;4.03;3.40;;;;;;;;;;5027091;28;20192;-49
2023/08/10 08:48:57;;;;;;;4.67;3.17;;;;;;;;;;5027642;28;20207;-49
2023/08/10 08:51:23;;;;;;;3.83;3.33;;;;;;;;;;5027392;28;20197;-49
2023/08/10 08:53:50;;;;;;;6.50;3.57;;;;;;;;;;5027271;28;20193;-49
2023/08/10 08:56:16;;;;;;;6.33;3.80;;;;;;;;;;5023402;28;20666;-48
2023/08/10 08:58:42;;;;;;;4.43;3.83;;;;;;;;;;5022537;28;20206;-49
2023/08/10 09:01:09;;;;;;;5.63;3.80;;;;;;;;;;5001000;28;20194;-49
2023/08/10 09:03:35;;;;;;;8.87;4.80;;;;;;;;;;5022916;28;20676;-50
2023/08/10 09:06:01;;;;;;;8.23;4.83;;;;;;;;;;5024965;28;20189;-50
2023/08/10 09:08:28;;;;;;;5.97;3.90;;;;;;;;;;5024144;28;20725;-51
2023/08/10 09:10:54;;;;;;;7.27;4.40;;;;;;;;;;5026229;28;20185;-50
2023/08/10 09:13:22;;;;;;;6.37;4.63;;;;;;;;;;5024057;28;20232;-50
2023/08/10 09:16:03;;;;;;;8.70;5.47;;;;;;;;;;5023355;28;20190;-50
2023/08/10 09:18:33;;;;;;;8.33;4.97;;;;;;;;;;5019130;28;20675;-50
2023/08/10 09:21:11;;;;;;;12.20;7.00;;;;;;;;;;5017802;28;20568;-50
2023/08/10 09:23:37;;;;;;;10.40;5.80;;;;;;;;;;5017063;28;20197;-50
2023/08/10 09:26:07;;;;;;;12.53;5.70;;;;;;;;;;5025704;28;20208;-51
2023/08/10 09:28:36;;;;;;;12.03;6.00;;;;;;;;;;5027490;28;20189;-51
2023/08/10 09:31:02;;;;;;;8.33;5.17;;;;;;;;;;5024992;28;20210;-50
2023/08/10 09:33:38;;;;;;;11.60;5.97;;;;;;;;;;5024237;28;20228;-50
2023/08/10 09:36:05;;;;;;;6.60;5.23;;;;;;;;;;5023578;28;20209;-50
2023/08/10 09:38:31;;;;;;;8.83;5.43;;;;;;;;;;5017099;28;20321;-50
2023/08/10 09:41:11;;;;;;;7.07;4.80;;;;;;;;;;5001516;28;20197;-49
2023/08/10 09:43:37;;;;;;;6.63;4.53;;;;;;;;;;5018600;28;20190;-49
2023/08/10 09:46:05;;;;;;;7.77;4.97;;;;;;;;;;5019481;28;20638;-48
2023/08/10 09:48:35;;;;;;;8.00;5.67;;;;;;;;;;5024854;28;20245;-49
2023/08/10 09:51:05;;;;;;;9.77;5.73;;;;;;;;;;5021606;28;20190;-50
2023/08/10 09:53:33;;;;;;;8.37;5.07;;;;;;;;;;5025687;28;20190;-49
2023/08/10 09:56:00;;;;;;;7.70;4.97;;;;;;;;;;5023315;28;20190;-49
2023/08/10 09:58:27;;;;;;;6.13;4.30;;;;;;;;;;5008145;28;20217;-49
2023/08/10 10:00:53;;;;;;;6.87;5.20;;;;;;;;;;5015643;28;20187;-52
2023/08/10 10:03:21;;;;;;;9.13;4.77;;;;;;;;;;5020991;28;20194;-53
2023/08/10 10:05:48;;;;;;;6.80;5.03;;;;;;;;;;5021307;28;20245;-54
2023/08/10 10:08:16;;;;;;;9.43;5.33;;;;;;;;;;5014803;28;20186;-53
2023/08/10 10:10:43;;;;;;;7.83;4.73;;;;;;;;;;5018153;28;20219;-53
2023/08/10 10:13:12;;;;;;;9.33;5.33;;;;;;;;;;5024952;28;20196;-52
2023/08/10 10:15:39;;;;;;;7.47;5.23;;;;;;;;;;5021375;28;20205;-53
2023/08/10 10:18:08;;;;;;;7.50;4.77;;;;;;;;;;5026292;28;20220;-54
2023/08/10 10:20:36;;;;;;;10.00;5.27;;;;;;;;;;5023919;28;20190;-56
2023/08/10 10:23:02;;;;;;;11.90;4.93;;;;;;;;;;5024834;28;20678;-54
2023/08/10 10:25:28;;;;;;;8.97;5.67;;;;;;;;;;5021434;28;20211;-54
2023/08/10 10:27:56;;;;;;;7.87;5.10;;;;;;;;;;5021801;28;20201;-55
2023/08/10 10:30:25;;;;;;;7.80;5.50;;;;;;;;;;5024318;28;20247;-55
2023/08/10 10:32:52;;;;;;;9.80;5.10;;;;;;;;;;5024516;28;20253;-55
2023/08/10 10:35:25;;;;;;;9.97;5.93;;;;;;;;;;5021570;28;20196;-54
2023/08/10 10:37:58;;;;;;;7.77;5.83;;;;;;;;;;5023620;28;20563;-53
2023/08/10 10:40:25;;;;;;;6.23;4.60;;;;;;;;;;5005388;28;21855;-55
2023/08/10 10:43:04;;;;;;;6.97;4.83;;;;;;;;;;5023709;28;20183;-54
2023/08/10 10:45:40;;;;;;;8.40;4.80;;;;;;;;;;5023779;28;20330;-55
2023/08/10 10:48:07;;;;;;;8.90;5.50;;;;;;;;;;5023040;28;20194;-55
2023/08/10 10:50:35;;;;;;;6.83;5.07;;;;;;;;;;5025915;28;20189;-54
2023/08/10 10:53:03;;;;;;;7.07;5.30;;;;;;;;;;5027213;28;20638;-55
2023/08/10 10:55:43;;;;;;;8.40;6.10;;;;;;;;;;5027755;28;20201;-55
2023/08/10 10:58:10;;;;;;;6.67;5.37;;;;;;;;;;5025424;28;20206;-55
2023/08/10 11:00:37;;;;;;;10.07;5.93;;;;;;;;;;5023091;28;20255;-56
2023/08/10 11:03:04;;;;;;;7.57;4.77;;;;;;;;;;5030411;28;20225;-55
2023/08/10 11:05:30;;;;;;;7.00;5.10;;;;;;;;;;5028833;28;20185;-55
2023/08/10 11:08:03;;;;;;;9.33;5.17;;;;;;;;;;5030340;28;20537;-55
2023/08/10 11:10:30;;;;;;;13.07;7.23;;;;;;;;;;5028431;28;20178;-52
2023/08/10 11:12:56;;;;;;;11.47;8.03;;;;;;;;;;5031947;28;20174;-52
2023/08/10 11:15:23;;;;;;;13.73;8.40;;;;;;;;;;5031478;28;20186;-52
2023/08/10 11:17:50;;;;;;;16.00;8.73;;;;;;;;;;5027467;28;20603;-52
2023/08/10 11:20:18;;;;;;;13.33;7.70;;;;;;;;;;5027462;28;20272;-54
2023/08/10 11:22:45;;;;;;;15.80;8.80;;;;;;;;;;5017839;28;20190;-54
2023/08/10 11:25:13;;;;;;;13.13;8.03;;;;;;;;;;5028690;28;20190;-54
2023/08/10 11:27:49;;;;;;;16.60;9.20;;;;;;;;;;5030805;28;20190;-53
2023/08/10 11:30:17;;;;;;;16.17;8.37;;;;;;;;;;5029651;28;20911;-55
2023/08/10 11:32:44;;;;;;;11.37;7.87;;;;;;;;;;5027464;28;20244;-54
2023/08/10 11:35:12;;;;;;;11.57;7.13;;;;;;;;;;5028821;28;20182;-55
2023/08/10 11:37:39;;;;;;;16.73;7.40;;;;;;;;;;5027293;28;20241;-54
2023/08/10 11:40:07;;;;;;;11.70;7.23;;;;;;;;;;5028818;28;20685;-55
2023/08/10 11:42:36;;;;;;;9.73;6.83;;;;;;;;;;5028042;28;20182;-56
2023/08/10 11:45:06;;;;;;;9.87;6.70;;;;;;;;;;5028464;28;20298;-56
2023/08/10 11:47:43;;;;;;;16.17;8.37;;;;;;;;;;5028866;28;20550;-56
2023/08/10 11:50:10;;;;;;;16.73;10.13;;;;;;;;;;5028087;28;20276;-56
2023/08/10 11:52:37;;;;;;;20.83;10.43;;;;;;;;;;5028265;28;20244;-56
2023/08/10 11:55:12;;;;;;;16.77;10.13;;;;;;;;;;5027136;28;20201;-56
2023/08/10 11:57:39;;;;;;;18.87;10.93;;;;;;;;;;5018479;28;20232;-56
2023/08/10 12:00:30;;;;;;;17.90;10.73;;;;;;;;;;5024753;28;20762;-56
2023/08/10 12:03:02;;;;;;;17.33;11.37;;;;;;;;;;5027177;28;20176;-55
2023/08/10 12:05:36;;;;;;;22.37;12.87;;;;;;;;;;5024844;28;20693;-55
2023/08/10 12:08:03;;;;;;;23.30;12.63;;;;;;;;;;5023506;28;20186;-56
2023/08/10 12:10:43;;;;;;;23.27;11.93;;;;;;;;;;5026237;28;20206;-55
2023/08/10 12:13:10;;;;;;;21.20;11.80;;;;;;;;;;5024507;28;20186;-56
2023/08/10 12:15:44;;;;;;;23.73;13.70;;;;;;;;;;5026217;28;20198;-54
2023/08/10 12:18:10;;;;;;;15.60;8.90;;;;;;;;;;5027128;28;20213;-55
2023/08/10 12:20:36;;;;;;;12.30;8.20;;;;;;;;;;5025874;28;20188;-55
2023/08/10 12:23:03;;;;;;;12.47;6.87;;;;;;;;;;5025193;28;20201;-55
2023/08/10 12:25:29;;;;;;;7.73;5.57;;;;;;;;;;5025324;28;20199;-55
2023/08/10 12:27:55;;;;;;;9.37;6.47;;;;;;;;;;5023899;28;20223;-56
2023/08/10 12:30:21;;;;;;;8.83;6.37;;;;;;;;;;5027322;28;20552;-55
2023/08/10 12:32:48;;;;;;;11.77;7.13;;;;;;;;;;5024163;28;20618;-55
2023/08/10 12:35:14;;;;;;;8.17;5.33;;;;;;;;;;5027463;28;20224;-55
2023/08/10 12:37:41;;;;;;;10.13;5.60;;;;;;;;;;5027461;28;20232;-55
2023/08/10 12:40:08;;;;;;;7.73;5.60;;;;;;;;;;5026440;28;20231;-52
2023/08/10 12:42:34;;;;;;;8.00;5.57;;;;;;;;;;5026186;28;20244;-52
2023/08/10 12:45:00;;;;;;;8.73;5.23;;;;;;;;;;5024737;28;20220;-52
2023/08/10 12:47:27;;;;;;;7.33;4.90;;;;;;;;;;5027877;28;20331;-52
2023/08/10 12:49:54;;;;;;;5.00;4.27;;;;;;;;;;5008213;28;20232;-52
2023/08/10 12:52:20;;;;;;;6.23;4.23;;;;;;;;;;5021107;28;20239;-52
2023/08/10 12:54:46;;;;;;;7.93;5.07;;;;;;;;;;5023165;28;20300;-52
2023/08/10 12:57:12;;;;;;;7.73;4.60;;;;;;;;;;5025932;28;20183;-51
2023/08/10 12:59:38;;;;;;;6.47;4.80;;;;;;;;;;5026802;28;20243;-51
2023/08/10 13:02:04;;;;;;;6.60;4.67;;;;;;;;;;5027471;28;20647;-52
2023/08/10 13:04:30;;;;;;;7.27;4.93;;;;;;;;;;5026987;28;20199;-52
2023/08/10 13:06:56;;;;;;;10.50;5.87;;;;;;;;;;5027975;28;20192;-52
2023/08/10 13:09:22;;;;;;;7.63;5.30;;;;;;;;;;5022373;28;20664;-52
2023/08/10 13:11:49;;;;;;;9.07;6.57;;;;;;;;;;5020676;28;20832;-52
2023/08/10 13:14:15;;;;;;;16.67;10.63;;;;;;;;;;5022493;28;20192;-50
2023/08/10 13:16:43;;;;;;;17.07;10.43;;;;;;;;;;5025948;28;20209;-51
2023/08/10 13:19:09;;;;;;;12.70;7.23;;;;;;;;;;5024026;28;20575;-51
2023/08/10 13:21:36;;;;;;;7.73;6.40;;;;;;;;;;5020111;28;20198;-52
2023/08/10 13:24:03;;;;;;;8.17;6.67;;;;;;;;;;5016992;28;20191;-50
2023/08/10 13:26:30;;;;;;;9.37;5.93;;;;;;;;;;5021765;28;20209;-52
2023/08/10 13:28:56;;;;;;;11.40;6.43;;;;;;;;;;5023054;28;20192;-52
2023/08/10 13:31:23;;;;;;;9.90;6.67;;;;;;;;;;5026851;28;20699;-52
2023/08/10 13:33:50;;;;;;;8.30;6.60;;;;;;;;;;5021440;28;20200;-52
2023/08/10 13:36:17;;;;;;;8.03;6.33;;;;;;;;;;5021136;28;20224;-51
2023/08/10 13:38:43;;;;;;;8.53;6.50;;;;;;;;;;5024847;28;20808;-51
2023/08/10 13:41:10;;;;;;;7.27;6.37;;;;;;;;;;5025400;28;20192;-52
2023/08/10 13:43:36;;;;;;;8.27;6.40;;;;;;;;;;5020768;28;20198;-52
2023/08/10 13:46:06;;;;;;;8.97;6.50;;;;;;;;;;5003846;28;20223;-52
2023/08/10 13:48:33;;;;;;;7.80;6.07;;;;;;;;;;5003712;28;20194;-52
2023/08/10 13:50:59;;;;;;;8.07;6.37;;;;;;;;;;5020166;28;20203;-53
2023/08/10 13:53:26;;;;;;;6.97;5.93;;;;;;;;;;5021101;28;20212;-54
2023/08/10 13:55:52;;;;;;;9.27;6.87;;;;;;;;;;5025573;28;20574;-54
2023/08/10 13:58:18;;;;;;;9.63;6.13;;;;;;;;;;5022866;28;20252;-54
2023/08/10 14:00:45;;;;;;;7.80;5.93;;;;;;;;;;5004064;28;20192;-51
2023/08/10 14:03:11;;;;;;;7.23;6.33;;;;;;;;;;5022810;28;20241;-51
2023/08/10 14:05:38;;;;;;;9.43;6.70;;;;;;;;;;5025229;28;20206;-52
2023/08/10 14:08:05;;;;;;;9.27;6.10;;;;;;;;;;5006199;28;20224;-52
2023/08/10 14:10:31;;;;;;;8.23;6.13;;;;;;;;;;5018849;28;20189;-51
2023/08/10 14:12:58;;;;;;;6.30;5.53;;;;;;;;;;5023527;28;20332;-51
2023/08/10 14:15:25;;;;;;;9.43;6.57;;;;;;;;;;5024617;28;20205;-51
2023/08/10 14:17:53;;;;;;;6.73;5.03;;;;;;;;;;5025892;28;20676;-51
2023/08/10 14:20:19;;;;;;;8.70;6.20;;;;;;;;;;5025139;28;20329;-52
2023/08/10 14:22:46;;;;;;;7.40;5.93;;;;;;;;;;5004534;28;20185;-50
2023/08/10 14:25:12;;;;;;;7.27;5.40;;;;;;;;;;5028096;28;21169;-50
2023/08/10 14:27:38;;;;;;;7.23;5.60;;;;;;;;;;5026300;28;20216;-51
2023/08/10 14:30:05;;;;;;;8.47;5.97;;;;;;;;;;5026142;28;20286;-51
2023/08/10 14:32:31;;;;;;;6.10;5.40;;;;;;;;;;5028766;28;20671;-51
2023/08/10 14:34:57;;;;;;;7.87;5.33;;;;;;;;;;5028018;28;20279;-51
2023/08/10 14:37:26;;;;;;;6.30;4.90;;;;;;;;;;5029286;28;20232;-50
2023/08/10 14:39:52;;;;;;;9.17;4.77;;;;;;;;;;5029169;28;20236;-51